Time;durP1;ratioP1;P1;durP2;ratioP2;P2;SDS_P1;SDS_P2;PMS_P1;PMS_P2;Temp;Humidity;BMP_temperature;BMP_pressure;BME280_temperature;BME280_humidity;BME280_pressure;Samples;Min_cycle;Max_cycle;Signal;HPM_P1;HPM_P2
2022/09/06 00:00:11;;;;;;;3.42;3.13;;;;;;;18.98;78.91;101390.13;4991871;28;20030;-92
2022/09/06 00:02:37;;;;;;;5.75;3.55;;;;;;;19.02;78.87;101396.09;4983174;28;20082;-93
2022/09/06 00:05:02;;;;;;;4.22;3.22;;;;;;;19.19;78.71;101428.06;4983017;28;20036;-93
2022/09/06 00:07:28;;;;;;;3.92;3.42;;;;;;;19.06;78.24;101492.00;4976549;28;20059;-92
2022/09/06 00:09:53;;;;;;;7.88;3.60;;;;;;;18.75;80.09;101505.13;4988844;28;20306;-92
2022/09/06 00:12:19;;;;;;;4.65;3.88;;;;;;;18.26;82.91;101497.94;4990933;28;20030;-93
2022/09/06 00:14:45;;;;;;;5.95;4.15;;;;;;;18.06;87.18;101502.09;4979195;28;20038;-95
2022/09/06 00:17:10;;;;;;;7.70;4.75;;;;;;;17.89;89.20;101527.53;4979756;28;20034;-93
2022/09/06 00:19:35;;;;;;;7.47;4.40;;;;;;;17.74;89.33;101542.06;4980288;28;20031;-91
2022/09/06 00:22:01;;;;;;;6.18;4.82;;;;;;;17.62;91.83;101524.03;4975394;28;20469;-92
2022/09/06 00:24:26;;;;;;;6.47;4.70;;;;;;;17.53;91.50;101493.25;4979183;28;20050;-93
2022/09/06 00:26:51;;;;;;;6.95;5.13;;;;;;;17.62;91.32;101499.81;4977030;28;20027;-91
2022/09/06 00:29:17;;;;;;;6.53;5.35;;;;;;;17.53;91.48;101495.94;4976149;28;20035;-93
2022/09/06 00:31:42;;;;;;;7.75;5.00;;;;;;;17.50;92.33;101481.81;4970991;28;20096;-92
2022/09/06 00:34:07;;;;;;;5.60;5.15;;;;;;;17.51;92.34;101468.25;4966819;28;20113;-92
2022/09/06 00:36:33;;;;;;;7.05;5.43;;;;;;;17.51;93.29;101478.16;4976099;28;20323;-92
2022/09/06 00:38:58;;;;;;;6.13;5.50;;;;;;;17.50;93.44;101473.75;4970427;28;20030;-92
2022/09/06 00:41:23;;;;;;;7.15;5.70;;;;;;;17.54;92.63;101486.03;4976592;28;20053;-92
2022/09/06 00:43:49;;;;;;;10.43;5.57;;;;;;;17.46;93.16;101477.63;4976555;28;20162;-92
2022/09/06 00:46:18;;;;;;;6.82;5.70;;;;;;;17.47;94.22;101482.03;4977497;28;20039;-93
2022/09/06 00:48:46;;;;;;;6.55;5.95;;;;;;;17.52;94.06;101474.53;4966355;28;20122;-93
2022/09/06 00:51:14;;;;;;;6.88;5.90;;;;;;;17.58;94.58;101461.47;4974846;28;20027;-90
2022/09/06 00:53:40;;;;;;;7.40;5.38;;;;;;;17.54;93.71;101454.59;4975618;28;20113;-92
2022/09/06 00:56:05;;;;;;;6.65;5.35;;;;;;;17.61;94.69;101460.41;4972923;28;20046;-93
2022/09/06 00:58:31;;;;;;;8.70;5.80;;;;;;;17.62;94.39;101460.28;4973726;28;20507;-92
2022/09/06 01:00:56;;;;;;;7.57;5.68;;;;;;;17.56;94.40;101441.91;4972415;28;20038;-91
2022/09/06 01:03:23;;;;;;;6.30;5.70;;;;;;;17.61;94.55;101426.28;4972862;28;20027;-92
2022/09/06 01:06:19;;;;;;;7.32;5.50;;;;;;;17.56;94.13;101428.44;4972879;28;20030;-92
2022/09/06 01:09:25;;;;;;;5.43;4.85;;;;;;;17.42;92.97;101421.31;4954371;28;20029;-91
2022/09/06 01:12:25;;;;;;;6.88;5.45;;;;;;;17.41;93.03;101424.13;4963620;28;20085;-91
2022/09/06 01:15:06;;;;;;;8.18;5.70;;;;;;;17.39;94.63;101421.56;4972374;28;20167;-91
2022/09/06 01:17:53;;;;;;;6.45;5.45;;;;;;;17.53;96.17;101414.34;4965344;28;20058;-93
2022/09/06 01:20:26;;;;;;;8.85;5.45;;;;;;;17.49;94.97;101412.81;4971934;28;20057;-92
2022/09/06 01:23:09;;;;;;;7.60;5.35;;;;;;;17.46;94.44;101402.28;4953676;28;20453;-90
2022/09/06 01:25:59;;;;;;;5.97;5.35;;;;;;;17.34;93.80;101407.53;4971033;28;20058;-90
2022/09/06 01:28:45;;;;;;;9.30;5.15;;;;;;;17.28;94.98;101408.00;4958402;28;20039;-90
2022/09/06 01:31:17;;;;;;;6.38;5.75;;;;;;;17.29;95.29;101404.31;4969658;28;20034;-90
2022/09/06 01:33:52;;;;;;;5.97;4.80;;;;;;;17.29;95.54;101396.25;4971245;28;20038;-90
2022/09/06 01:36:23;;;;;;;6.55;5.00;;;;;;;17.21;96.02;101363.66;4971763;28;20797;-92
2022/09/06 01:38:49;;;;;;;9.25;5.95;;;;;;;17.13;96.81;101342.66;4975542;28;20025;-92
2022/09/06 01:41:14;;;;;;;12.55;7.65;;;;;;;17.09;97.36;101343.84;4974436;28;20505;-91
2022/09/06 01:43:44;;;;;;;8.57;6.50;;;;;;;17.02;98.24;101331.81;4973093;28;20043;-91
2022/09/06 01:46:25;;;;;;;6.78;5.90;;;;;;;17.05;97.70;101319.97;4973090;28;20371;-91
2022/09/06 01:49:16;;;;;;;9.20;6.53;;;;;;;17.01;98.04;101311.25;4974977;28;20038;-91
2022/09/06 01:52:16;;;;;;;7.38;6.28;;;;;;;16.95;98.10;101287.50;4972062;28;20050;-92
2022/09/06 01:54:50;;;;;;;7.00;6.28;;;;;;;16.85;99.21;101270.31;4971604;28;20034;-90
2022/09/06 01:57:33;;;;;;;9.48;6.20;;;;;;;16.83;99.32;101248.88;4969277;28;20034;-89
2022/09/06 02:00:09;;;;;;;;;;;;;;;16.77;96.89;101233.22;4971051;28;20109;-90
2022/09/06 02:02:43;;;;;;;6.95;6.25;;;;;;;16.76;99.08;101239.56;4971823;28;19929;-89
2022/09/06 02:05:18;;;;;;;7.15;6.45;;;;;;;16.82;99.28;101270.50;4970944;28;20045;-90
2022/09/06 02:07:45;;;;;;;10.68;6.90;;;;;;;16.65;99.36;101277.88;4974291;28;20113;-91
2022/09/06 02:10:19;;;;;;;9.15;6.30;;;;;;;16.72;100.00;101275.66;4965952;28;20039;-90
2022/09/06 02:12:48;;;;;;;8.15;6.75;;;;;;;16.72;100.00;101272.97;4966890;28;20027;-89
2022/09/06 02:15:27;;;;;;;9.07;6.65;;;;;;;16.77;100.00;101273.53;4967781;28;20584;-90
2022/09/06 02:18:02;;;;;;;7.63;6.63;;;;;;;16.80;100.00;101264.38;4965478;28;20491;-90
2022/09/06 02:20:33;;;;;;;8.98;6.05;;;;;;;16.87;100.00;101277.28;4968421;28;20027;-90
2022/09/06 02:23:04;;;;;;;8.13;6.43;;;;;;;16.87;100.00;101277.28;4970747;28;20113;-91
2022/09/06 02:25:37;;;;;;;7.85;6.50;;;;;;;16.86;99.75;101270.19;4970108;28;20026;-89
2022/09/06 02:28:04;;;;;;;7.45;6.50;;;;;;;16.81;99.78;101264.28;4965916;28;20390;-89
2022/09/06 02:30:31;;;;;;;10.63;7.78;;;;;;;16.71;99.49;101260.47;4967942;28;20034;-91
2022/09/06 02:33:01;;;;;;;7.30;6.60;;;;;;;16.69;99.35;101255.22;4968669;28;20209;-90
2022/09/06 02:35:27;;;;;;;9.68;7.25;;;;;;;16.66;99.88;101257.25;4967173;28;20041;-90
2022/09/06 02:37:52;;;;;;;7.90;7.10;;;;;;;16.64;100.00;101248.44;4966368;28;20035;-89
2022/09/06 02:40:18;;;;;;;7.60;6.90;;;;;;;16.61;100.00;101241.44;4967773;28;20445;-91
2022/09/06 02:42:44;;;;;;;7.32;6.55;;;;;;;16.60;99.03;101247.78;4966047;28;20054;-90
2022/09/06 02:45:09;;;;;;;8.30;6.45;;;;;;;16.61;100.00;101254.03;4965277;28;20034;-91
2022/09/06 02:47:35;;;;;;;8.13;6.68;;;;;;;16.61;99.91;101262.09;4968774;28;20098;-90
2022/09/06 02:50:00;;;;;;;9.02;7.07;;;;;;;16.59;99.01;101266.69;4968013;28;20018;-90
2022/09/06 02:52:26;;;;;;;8.20;6.90;;;;;;;16.56;99.09;101270.47;4968331;28;20468;-90
2022/09/06 02:54:51;;;;;;;7.85;6.70;;;;;;;16.49;99.61;101266.47;4969442;28;20027;-90
2022/09/06 02:57:16;;;;;;;7.82;7.00;;;;;;;16.51;99.57;101278.00;4950597;28;20380;-89
2022/09/06 02:59:42;;;;;;;8.10;6.30;;;;;;;16.53;99.37;101265.31;4967901;28;20034;-90
2022/09/06 03:02:07;;;;;;;8.77;7.68;;;;;;;16.56;100.00;101281.22;4968555;28;20114;-90
2022/09/06 03:04:32;;;;;;;9.48;7.72;;;;;;;16.55;100.00;101279.47;4949397;28;20034;-91
2022/09/06 03:06:58;;;;;;;9.57;7.20;;;;;;;16.55;99.89;101276.78;4961334;28;20078;-91
2022/09/06 03:09:24;;;;;;;8.60;7.32;;;;;;;16.62;99.25;101280.78;4962498;28;20089;-91
2022/09/06 03:11:49;;;;;;;8.52;7.10;;;;;;;16.65;99.16;101277.03;4967912;28;20030;-91
2022/09/06 03:14:18;;;;;;;8.63;7.57;;;;;;;16.67;99.09;101267.88;4950620;28;20440;-91
2022/09/06 03:16:44;;;;;;;8.60;7.70;;;;;;;16.85;98.46;101276.53;4970775;28;20033;-90
2022/09/06 03:19:09;;;;;;;8.35;7.55;;;;;;;16.93;96.85;101274.16;4968364;28;20027;-90
2022/09/06 03:21:35;;;;;;;8.15;7.07;;;;;;;16.99;95.37;101280.06;4974578;28;20031;-90
2022/09/06 03:24:00;;;;;;;8.45;7.40;;;;;;;16.97;95.59;101273.94;4971449;28;20057;-90
2022/09/06 03:26:26;;;;;;;9.35;7.20;;;;;;;17.06;94.98;101282.22;4970532;28;20027;-91
2022/09/06 03:28:52;;;;;;;10.18;8.20;;;;;;;17.04;94.54;101276.09;4966375;28;20026;-90
2022/09/06 03:31:17;;;;;;;8.38;7.43;;;;;;;17.09;95.00;101283.81;4970597;28;20035;-90
2022/09/06 03:33:42;;;;;;;10.50;7.82;;;;;;;17.09;95.05;101276.59;4966061;28;20038;-92
2022/09/06 03:36:07;;;;;;;8.45;7.65;;;;;;;17.10;94.78;101281.03;4989315;28;20014;-91
2022/09/06 03:38:33;;;;;;;8.60;7.68;;;;;;;17.13;94.71;101283.47;4991675;28;20086;-90
2022/09/06 03:41:01;;;;;;;10.20;8.18;;;;;;;17.09;94.24;101278.44;4982211;28;20084;-90
2022/09/06 03:43:27;;;;;;;9.43;8.27;;;;;;;17.08;94.26;101280.28;4984900;28;20094;-92
2022/09/06 03:45:54;;;;;;;9.38;8.48;;;;;;;17.08;93.97;101282.97;4993473;28;20038;-90
2022/09/06 03:48:21;;;;;;;11.23;9.23;;;;;;;17.00;93.99;101279.09;4991125;28;20015;-91
2022/09/06 03:50:48;;;;;;;11.18;8.88;;;;;;;17.03;94.28;101282.44;4989828;28;20031;-91
2022/09/06 03:53:15;;;;;;;11.38;9.32;;;;;;;17.01;93.47;101283.50;4993298;28;20054;-91
2022/09/06 03:55:44;;;;;;;10.10;9.10;;;;;;;16.99;93.97;101277.38;4992240;28;20135;-92
2022/09/06 03:58:09;;;;;;;9.70;8.80;;;;;;;17.00;93.88;101276.41;4994701;28;20030;-90
2022/09/06 04:00:35;;;;;;;10.80;9.30;;;;;;;17.00;94.02;101274.56;4988163;28;20037;-90
2022/09/06 04:03:01;;;;;;;9.73;8.63;;;;;;;16.88;93.35;101268.22;4987846;28;20047;-92
2022/09/06 04:05:26;;;;;;;10.07;9.10;;;;;;;16.90;93.33;101274.38;4983926;28;20027;-92
2022/09/06 04:07:51;;;;;;;10.13;9.07;;;;;;;16.87;93.62;101282.66;4974569;28;20081;-91
2022/09/06 04:10:16;;;;;;;11.18;9.90;;;;;;;16.86;94.01;101275.56;4974417;28;20042;-92
2022/09/06 04:12:42;;;;;;;10.43;9.32;;;;;;;16.90;94.32;101290.50;4974054;28;20123;-92
2022/09/06 04:15:08;;;;;;;10.75;9.65;;;;;;;16.88;93.53;101289.75;4973582;28;20030;-91
2022/09/06 04:17:33;;;;;;;10.93;9.63;;;;;;;16.86;93.48;101288.16;4995210;28;20023;-93
2022/09/06 04:19:58;;;;;;;10.75;9.25;;;;;;;16.83;92.56;101294.59;4973583;28;20113;-92
2022/09/06 04:22:23;;;;;;;11.23;9.90;;;;;;;16.82;93.28;101282.13;4964563;28;20118;-92
2022/09/06 04:24:49;;;;;;;11.35;9.90;;;;;;;16.77;92.69;101295.03;4978391;28;20424;-91
2022/09/06 04:27:14;;;;;;;10.50;9.50;;;;;;;16.75;93.20;101296.94;4975140;28;20029;-91
2022/09/06 04:29:39;;;;;;;9.77;8.80;;;;;;;16.74;92.58;101294.38;4987512;28;20030;-92
2022/09/06 04:32:05;;;;;;;10.18;9.13;;;;;;;16.68;93.37;101291.13;4971502;28;20031;-92
2022/09/06 04:34:30;;;;;;;11.85;10.63;;;;;;;16.71;93.75;101298.09;4972519;28;20035;-90
2022/09/06 04:36:55;;;;;;;11.32;10.18;;;;;;;16.65;93.34;101285.94;4990261;28;20042;-93
2022/09/06 04:39:20;;;;;;;11.07;9.77;;;;;;;16.62;93.50;101291.53;4975634;28;20023;-93
2022/09/06 04:41:46;;;;;;;13.52;10.70;;;;;;;16.63;93.50;101287.88;4975461;28;20037;-92
2022/09/06 04:44:11;;;;;;;14.35;10.90;;;;;;;16.63;93.30;101303.13;4984399;28;20138;-89
2022/09/06 04:46:40;;;;;;;11.70;10.50;;;;;;;16.62;93.49;101298.75;4974614;28;20066;-91
2022/09/06 04:49:05;;;;;;;12.80;10.88;;;;;;;16.63;93.26;101306.69;4986470;28;20035;-92
2022/09/06 04:51:30;;;;;;;12.27;10.80;;;;;;;16.57;93.05;101303.56;4973670;28;20035;-92
2022/09/06 04:53:56;;;;;;;11.88;10.23;;;;;;;16.55;93.55;101309.03;4977105;28;20186;-93
2022/09/06 04:56:24;;;;;;;12.10;10.85;;;;;;;16.52;93.51;101309.28;4974796;28;20027;-93
2022/09/06 04:58:51;;;;;;;11.60;10.43;;;;;;;16.47;94.21;101308.72;4975965;28;20023;-93
2022/09/06 05:01:16;;;;;;;13.25;10.32;;;;;;;16.46;93.77;101314.19;4976986;28;20034;-92
2022/09/06 05:03:42;;;;;;;11.75;10.35;;;;;;;16.49;94.02;101320.22;4971309;28;20018;-91
2022/09/06 05:06:13;;;;;;;14.77;10.38;;;;;;;16.48;94.04;101317.66;4976695;28;20045;-93
2022/09/06 05:08:40;;;;;;;13.07;10.80;;;;;;;16.46;93.71;101315.03;4976885;28;20031;-92
2022/09/06 05:11:06;;;;;;;12.18;10.98;;;;;;;16.48;94.94;101306.91;4974323;28;20475;-92
2022/09/06 05:13:33;;;;;;;13.35;11.30;;;;;;;16.46;94.87;101311.50;4974147;28;20034;-93
2022/09/06 05:16:03;;;;;;;14.93;11.88;;;;;;;16.44;94.60;101320.53;4991590;28;20428;-92
2022/09/06 05:18:29;;;;;;;13.65;11.65;;;;;;;16.47;94.14;101315.91;4976687;28;20451;-92
2022/09/06 05:20:54;;;;;;;12.27;11.00;;;;;;;16.43;93.92;101316.13;4963841;28;20067;-93
2022/09/06 05:23:21;;;;;;;13.77;11.43;;;;;;;16.42;94.38;101321.59;4970061;28;20384;-92
2022/09/06 05:25:47;;;;;;;12.52;11.32;;;;;;;16.39;94.71;101322.69;4991935;28;20031;-94
2022/09/06 05:28:13;;;;;;;12.23;10.98;;;;;;;16.39;94.48;101314.63;4975443;28;20045;-93
2022/09/06 05:30:40;;;;;;;12.23;10.95;;;;;;;16.36;94.48;101304.06;4972121;28;20046;-93
2022/09/06 05:33:05;;;;;;;13.15;11.77;;;;;;;16.37;94.62;101310.31;4973515;28;20066;-92
2022/09/06 05:35:30;;;;;;;13.30;10.73;;;;;;;16.31;95.03;101297.31;4988131;28;20085;-93
2022/09/06 05:37:56;;;;;;;15.23;11.52;;;;;;;16.36;95.09;101308.59;4973399;28;20140;-92
2022/09/06 05:40:21;;;;;;;12.40;11.13;;;;;;;16.36;95.01;101306.75;4971725;28;20059;-93
2022/09/06 05:42:46;;;;;;;15.90;11.75;;;;;;;16.38;94.24;101306.66;4966461;28;20070;-93
2022/09/06 05:45:12;;;;;;;12.48;10.77;;;;;;;16.39;94.71;101303.88;4976812;28;20122;-93
2022/09/06 05:47:37;;;;;;;12.05;10.85;;;;;;;16.47;94.32;101307.84;4974661;28;20061;-93
2022/09/06 05:50:03;;;;;;;12.20;10.88;;;;;;;16.55;94.72;101310.88;4972842;28;20062;-93
2022/09/06 05:52:29;;;;;;;12.40;11.07;;;;;;;16.58;94.06;101306.16;4972182;28;20023;-92
2022/09/06 05:54:54;;;;;;;12.27;10.73;;;;;;;16.60;94.13;101308.75;4975306;28;20540;-93
2022/09/06 05:57:19;;;;;;;11.55;10.30;;;;;;;16.67;94.28;101313.56;4980797;28;20027;-93
2022/09/06 05:59:44;;;;;;;16.20;10.68;;;;;;;16.74;94.21;101316.75;4975174;28;20064;-92
2022/09/06 06:02:10;;;;;;;11.82;10.15;;;;;;;16.82;92.58;101317.06;4972086;28;20095;-90
2022/09/06 06:04:35;;;;;;;10.65;9.55;;;;;;;17.01;92.45;101311.25;4972519;28;20042;-93
2022/09/06 06:07:00;;;;;;;11.25;10.05;;;;;;;17.23;92.88;101301.69;4972065;28;20069;-88
2022/09/06 06:09:26;;;;;;;11.80;9.50;;;;;;;17.42;91.41;101294.00;4956485;28;20479;-90
2022/09/06 06:11:51;;;;;;;12.02;9.85;;;;;;;17.70;89.58;101308.13;4968772;28;20027;-88
2022/09/06 06:14:16;;;;;;;12.23;9.77;;;;;;;17.91;88.80;101320.03;4959873;28;20042;-87
2022/09/06 06:16:42;;;;;;;12.60;10.25;;;;;;;18.11;89.08;101315.88;4955680;28;20034;-89
2022/09/06 06:19:07;;;;;;;10.50;9.38;;;;;;;18.30;87.26;101318.88;4961361;28;20041;-89
2022/09/06 06:21:33;;;;;;;9.43;8.45;;;;;;;18.55;86.05;101319.72;4974371;28;20078;-88
2022/09/06 06:24:01;;;;;;;11.60;8.75;;;;;;;18.67;85.18;101316.91;4975321;28;20110;-87
2022/09/06 06:26:28;;;;;;;8.88;7.97;;;;;;;18.92;82.75;101313.19;4975149;28;20062;-87
2022/09/06 06:28:56;;;;;;;11.20;8.20;;;;;;;19.11;83.14;101315.31;4969594;28;20034;-89
2022/09/06 06:31:22;;;;;;;9.73;8.73;;;;;;;19.28;83.70;101305.88;4957340;29;20050;-87
2022/09/06 06:33:48;;;;;;;9.40;8.43;;;;;;;19.49;81.99;101308.69;4957455;29;20031;-88
2022/09/06 06:36:13;;;;;;;11.35;10.07;;;;;;;19.69;81.61;101308.91;4957894;29;20090;-89
2022/09/06 06:38:40;;;;;;;32.43;24.03;;;;;;;19.90;81.27;101307.19;4957286;28;20038;-89
2022/09/06 06:41:08;;;;;;;10.93;9.35;;;;;;;20.04;78.91;101306.03;4971783;28;20404;-87
2022/09/06 06:43:36;;;;;;;11.02;9.10;;;;;;;20.14;79.05;101301.56;4973571;28;20039;-89
2022/09/06 06:46:09;;;;;;;9.95;8.90;;;;;;;20.33;78.64;101306.28;4963174;28;20053;-87
2022/09/06 06:48:36;;;;;;;8.52;7.43;;;;;;;20.45;77.18;101305.25;4977697;28;20035;-89
2022/09/06 06:51:02;;;;;;;9.45;7.40;;;;;;;20.67;75.80;101311.53;4974796;28;20031;-90
2022/09/06 06:53:27;;;;;;;8.13;7.18;;;;;;;20.89;74.64;101317.66;4970830;28;20027;-90
2022/09/06 06:55:53;;;;;;;8.55;7.00;;;;;;;21.00;72.61;101305.06;4956676;28;20027;-90
2022/09/06 06:58:18;;;;;;;9.75;7.60;;;;;;;21.27;72.17;101313.44;4958108;28;20034;-88
2022/09/06 07:00:44;;;;;;;8.65;7.32;;;;;;;21.39;72.43;101300.69;4984408;28;20042;-89
2022/09/06 07:03:11;;;;;;;7.88;6.40;;;;;;;21.58;71.81;101297.22;4983122;28;20030;-88
2022/09/06 07:05:37;;;;;;;9.63;6.70;;;;;;;21.81;70.35;101301.38;4984132;28;20095;-89
2022/09/06 07:08:04;;;;;;;8.25;6.80;;;;;;;22.11;69.86;101297.72;4977355;28;20374;-89
2022/09/06 07:10:29;;;;;;;9.13;6.10;;;;;;;22.29;67.12;101300.59;4988812;28;20329;-88
2022/09/06 07:12:55;;;;;;;8.00;6.97;;;;;;;22.47;67.83;101295.31;4993773;28;20042;-89
2022/09/06 07:15:20;;;;;;;9.45;7.20;;;;;;;22.62;65.00;101295.72;4995006;28;20086;-90
2022/09/06 07:17:45;;;;;;;7.78;6.32;;;;;;;22.85;64.31;101297.09;4994031;28;20019;-92
2022/09/06 07:20:11;;;;;;;9.27;6.85;;;;;;;23.05;63.21;101297.94;4977460;28;20027;-89
2022/09/06 07:22:37;;;;;;;10.35;6.25;;;;;;;23.31;62.98;101291.81;4972461;28;20042;-91
2022/09/06 07:25:04;;;;;;;8.32;6.00;;;;;;;23.61;62.58;101293.38;4974329;28;20078;-91
2022/09/06 07:27:29;;;;;;;7.85;6.80;;;;;;;23.93;61.08;101297.50;4971911;28;20027;-90
2022/09/06 07:29:55;;;;;;;7.38;6.55;;;;;;;24.19;61.01;101295.72;4984777;28;20027;-90
2022/09/06 07:32:20;;;;;;;6.60;5.90;;;;;;;24.47;59.26;101299.25;4987829;28;20472;-91
2022/09/06 07:34:45;;;;;;;7.88;6.22;;;;;;;24.83;58.17;101291.88;4982381;28;20094;-91
2022/09/06 07:37:11;;;;;;;12.00;5.78;;;;;;;25.21;57.23;101292.47;4980490;28;20090;-92
2022/09/06 07:39:37;;;;;;;6.95;5.68;;;;;;;25.57;55.85;101294.97;4974112;28;20505;-92
2022/09/06 07:42:03;;;;;;;6.97;5.32;;;;;;;25.86;54.15;101307.38;4972385;28;20175;-91
2022/09/06 07:44:28;;;;;;;6.07;5.32;;;;;;;26.16;55.13;101306.75;4973976;28;20496;-92
2022/09/06 07:46:54;;;;;;;8.02;5.38;;;;;;;26.45;53.70;101311.75;4955861;28;20081;-91
2022/09/06 07:49:19;;;;;;;6.55;5.13;;;;;;;26.79;53.24;101308.81;4970715;28;20034;-92
2022/09/06 07:51:46;;;;;;;5.82;4.70;;;;;;;27.10;50.76;101302.66;4975081;28;20503;-92
2022/09/06 07:54:12;;;;;;;5.30;4.80;;;;;;;27.43;49.83;101305.28;4976079;28;20031;-92
2022/09/06 07:56:37;;;;;;;5.45;3.53;;;;;;;27.68;49.37;101298.69;4984310;28;20046;-92
2022/09/06 07:59:03;;;;;;;4.20;3.80;;;;;;;28.04;48.10;101298.13;4976164;28;20031;-92
2022/09/06 08:01:29;;;;;;;5.85;3.53;;;;;;;28.48;47.61;101300.25;4973925;28;20041;-92
2022/09/06 08:04:00;;;;;;;4.15;3.45;;;;;;;28.94;45.13;101295.50;4973161;28;20027;-90
2022/09/06 08:06:27;;;;;;;4.18;3.40;;;;;;;28.82;44.18;101285.19;4966309;28;20114;-93
2022/09/06 08:08:53;;;;;;;4.97;3.20;;;;;;;29.11;45.98;101288.00;4966590;28;20019;-92
2022/09/06 08:11:20;;;;;;;4.93;3.30;;;;;;;29.37;43.06;101289.41;4980254;28;20065;-92
2022/09/06 08:13:50;;;;;;;4.30;3.08;;;;;;;29.60;43.63;101287.41;4981644;28;20536;-94
2022/09/06 08:16:16;;;;;;;4.03;2.78;;;;;;;30.15;41.34;101293.34;4979506;28;20030;-91
2022/09/06 08:18:41;;;;;;;4.40;2.60;;;;;;;30.42;41.85;101306.25;4967732;28;20035;-93
2022/09/06 08:21:07;;;;;;;3.25;2.75;;;;;;;30.81;39.45;101298.56;4961297;29;20035;-94
2022/09/06 08:23:33;;;;;;;3.45;2.40;;;;;;;31.11;38.65;101294.56;4961716;29;20034;-94
2022/09/06 08:25:58;;;;;;;3.97;2.35;;;;;;;30.98;38.71;101294.50;4961109;29;20024;-95
2022/09/06 08:28:24;;;;;;;4.70;2.60;;;;;;;31.33;39.66;101292.59;4969518;28;20035;-93
2022/09/06 08:30:50;;;;;;;4.05;2.28;;;;;;;31.00;38.54;101298.72;4978351;28;20041;-93
2022/09/06 08:33:19;;;;;;;3.45;2.50;;;;;;;30.72;41.17;101301.47;4976522;28;20109;-93
2022/09/06 08:35:53;;;;;;;8.40;2.45;;;;;;;30.74;40.75;101291.13;4962097;28;20031;-94
2022/09/06 08:38:18;;;;;;;4.32;2.50;;;;;;;31.28;38.07;101314.34;4984025;28;20027;-93
2022/09/06 08:40:44;;;;;;;4.55;2.20;;;;;;;31.16;37.70;101325.06;4984212;28;20025;-95
2022/09/06 08:43:17;;;;;;;3.47;2.40;;;;;;;30.62;39.72;101322.06;4983264;28;20093;-93
2022/09/06 08:45:44;;;;;;;3.40;2.08;;;;;;;30.17;38.04;101300.31;4979201;28;20035;-93
2022/09/06 08:48:09;;;;;;;4.97;2.10;;;;;;;29.84;38.95;101293.59;4978201;28;20035;-94
2022/09/06 08:50:37;;;;;;;2.72;2.03;;;;;;;30.07;38.98;101294.28;4980105;28;20068;-94
2022/09/06 08:53:15;;;;;;;3.50;2.50;;;;;;;30.92;38.10;101301.63;4980727;28;20061;-94
2022/09/06 08:55:51;;;;;;;2.47;1.98;;;;;;;31.52;36.00;101287.38;4980342;28;20027;-95
2022/09/06 08:58:49;;;;;;;2.65;2.08;;;;;;;32.00;36.67;101304.75;4972934;28;20477;-94
2022/09/06 09:01:21;;;;;;;3.60;2.08;;;;;;;32.75;34.78;101301.88;4961120;29;20039;-95
2022/09/06 09:03:47;;;;;;;2.95;1.98;;;;;;;33.22;33.24;101295.22;4961015;29;20050;-94
2022/09/06 09:06:12;;;;;;;3.28;1.90;;;;;;;33.54;31.82;101300.91;4978787;28;20034;-95
2022/09/06 09:09:05;;;;;;;2.97;2.08;;;;;;;33.78;32.58;101307.56;4978128;28;20038;-95
2022/09/06 09:11:32;;;;;;;4.30;1.60;;;;;;;34.25;30.84;101299.88;4981392;28;20464;-94
2022/09/06 09:14:10;;;;;;;3.40;1.73;;;;;;;34.54;32.33;101296.50;4979260;28;20050;-94
2022/09/06 09:16:36;;;;;;;3.28;1.75;;;;;;;35.04;29.88;101296.47;4962422;28;20039;-95
2022/09/06 09:19:03;;;;;;;3.30;1.90;;;;;;;35.62;30.69;101290.50;4977923;28;20039;-94
2022/09/06 09:21:33;;;;;;;2.22;1.83;;;;;;;36.03;28.98;101286.09;4988010;28;20426;-95
2022/09/06 09:24:04;;;;;;;3.70;1.58;;;;;;;36.28;28.62;101279.53;5000862;28;20038;-95
2022/09/06 09:26:40;;;;;;;2.80;1.90;;;;;;;36.63;28.17;101286.00;4998195;28;20755;-95
2022/09/06 09:29:10;;;;;;;2.42;1.70;;;;;;;36.96;27.22;101290.16;4981979;28;20038;-95
2022/09/06 09:31:39;;;;;;;2.28;1.80;;;;;;;37.28;27.12;101287.78;4968748;28;20505;-96
2022/09/06 09:34:11;;;;;;;2.67;1.80;;;;;;;37.55;26.60;101290.06;4983543;28;20038;-94
2022/09/06 09:36:37;;;;;;;3.22;1.80;;;;;;;37.99;26.28;101280.09;4978373;28;20087;-95
2022/09/06 09:39:10;;;;;;;9.10;2.67;;;;;;;37.95;25.14;101301.13;4977700;28;20023;-92
2022/09/06 09:41:39;;;;;;;3.17;1.88;;;;;;;37.46;26.57;101297.94;4978136;28;20109;-95
2022/09/06 09:44:09;;;;;;;2.78;1.90;;;;;;;37.91;25.82;101293.56;4977074;28;20500;-94
2022/09/06 09:46:38;;;;;;;2.72;1.85;;;;;;;38.55;24.71;101300.56;4976104;28;20077;-93
2022/09/06 09:49:27;;;;;;;4.20;2.00;;;;;;;39.08;26.22;101296.38;4976780;28;20349;-95
2022/09/06 09:52:12;;;;;;;3.17;1.95;;;;;;;39.63;25.79;101300.16;4977688;28;20023;-95
2022/09/06 09:54:41;;;;;;;2.75;1.90;;;;;;;39.59;23.65;101299.88;4977807;28;20030;-95
2022/09/06 09:57:13;;;;;;;2.83;1.80;;;;;;;39.78;24.07;101294.81;4958773;28;20488;-95
2022/09/06 09:59:44;;;;;;;2.50;2.00;;;;;;;40.30;23.57;101285.91;4979028;28;20510;-95
2022/09/06 10:02:29;;;;;;;2.70;1.80;;;;;;;40.85;23.58;101283.81;4982464;28;20034;-95
2022/09/06 10:05:05;;;;;;;2.63;1.88;;;;;;;40.66;22.71;101282.56;4986978;28;20392;-95
2022/09/06 10:07:32;;;;;;;2.83;2.05;;;;;;;40.42;22.09;101288.47;4978061;28;20032;-96
2022/09/06 10:10:03;;;;;;;6.15;2.53;;;;;;;40.54;22.36;101291.13;4959417;29;20397;-95
2022/09/06 10:12:32;;;;;;;4.10;2.10;;;;;;;40.79;22.46;101298.81;4958183;28;20039;-96
2022/09/06 10:14:58;;;;;;;2.60;2.28;;;;;;;41.08;22.08;101292.91;4957984;29;20393;-94
2022/09/06 10:17:30;;;;;;;5.43;2.30;;;;;;;41.17;22.20;101310.81;4961236;28;20020;-95
2022/09/06 10:19:58;;;;;;;3.83;2.08;;;;;;;41.30;21.93;101301.94;4960400;29;20035;-94
2022/09/06 10:22:36;;;;;;;4.00;2.42;;;;;;;41.08;22.00;101304.91;4958898;29;20106;-95
2022/09/06 10:25:02;;;;;;;3.03;2.30;;;;;;;41.76;21.63;101308.59;4960667;29;20030;-96
2022/09/06 10:27:27;;;;;;;3.23;2.10;;;;;;;41.75;21.18;101309.69;4968499;28;20121;-95
2022/09/06 10:30:01;;;;;;;4.28;2.53;;;;;;;41.57;22.29;101307.41;4976697;28;20441;-95
2022/09/06 10:32:54;;;;;;;3.33;2.70;;;;;;;41.40;22.18;101323.53;4988707;28;20023;-94
2022/09/06 10:35:28;;;;;;;5.82;2.25;;;;;;;41.69;22.12;101315.53;4993419;28;20014;-93
2022/09/06 10:38:06;;;;;;;4.43;2.47;;;;;;;42.26;22.02;101300.59;4974630;28;20038;-91
2022/09/06 10:40:54;;;;;;;2.83;2.40;;;;;;;42.04;22.14;101290.47;4976794;28;20041;-96
2022/09/06 10:43:20;;;;;;;2.97;2.33;;;;;;;42.27;21.51;101302.28;4981221;28;20193;-96
2022/09/06 10:46:13;;;;;;;3.80;2.50;;;;;;;43.47;21.27;101298.72;4981127;28;20050;-95
2022/09/06 10:48:43;;;;;;;3.70;2.22;;;;;;;43.28;19.10;101292.06;4977543;28;20045;-95
2022/09/06 10:51:31;;;;;;;4.28;2.35;;;;;;;43.28;20.74;101286.47;4979677;28;20029;-95
2022/09/06 10:53:59;;;;;;;5.32;2.60;;;;;;;43.37;19.37;101295.13;4983423;28;20041;-93
2022/09/06 10:56:34;;;;;;;6.25;3.67;;;;;;;43.91;19.81;101299.91;4975987;28;20046;-94
2022/09/06 10:59:27;;;;;;;8.18;6.03;;;;;;;44.63;19.43;101283.34;4978387;28;20030;-93
2022/09/06 11:02:11;;;;;;;4.18;2.88;;;;;;;44.69;19.01;101283.03;4979131;28;20124;-94
2022/09/06 11:04:40;;;;;;;3.80;2.10;;;;;;;44.68;18.03;101284.16;4978378;28;20078;-95
2022/09/06 11:07:32;;;;;;;3.53;2.25;;;;;;;45.00;18.12;101295.91;4976802;28;20026;-95
2022/09/06 11:10:21;;;;;;;3.45;2.20;;;;;;;43.44;18.70;101293.69;4979335;28;20037;-94
2022/09/06 11:12:53;;;;;;;4.95;3.65;;;;;;;43.29;18.79;101290.09;4989412;28;20038;-94
2022/09/06 11:15:21;;;;;;;5.80;4.90;;;;;;;42.93;18.74;101290.19;4989469;28;20343;-94
2022/09/06 11:18:06;;;;;;;5.00;2.88;;;;;;;43.16;19.41;101302.75;4973861;28;20062;-95
2022/09/06 11:20:34;;;;;;;3.92;2.28;;;;;;;43.09;18.66;101305.03;4996888;28;20077;-96
2022/09/06 11:23:08;;;;;;;6.07;2.28;;;;;;;42.51;19.93;101311.78;5010334;28;20058;-94
2022/09/06 11:26:02;;;;;;;3.38;2.08;;;;;;;43.19;19.82;101305.00;5010430;28;20034;-95
2022/09/06 11:28:58;;;;;;;2.85;2.22;;;;;;;43.32;18.93;101310.00;4992460;28;20066;-95
2022/09/06 11:31:27;;;;;;;5.82;2.38;;;;;;;43.13;18.49;101308.94;4979381;28;20050;-95